Dublin, CA

3:01 AM PDT on September 22, 2014 (GMT -0700)
KCADUBLI8 | Change Station
CLOSE
Current Station
Personal Weather Station
Location: Dublin, CA
Elevation: 338 ft
Nearby Weather Stations

Elev 338 ft 37.71 °N, 121.92 °W | Updated 1 minute ago

Overcast
Overcast
63.1 °F
Feels Like 63.1 °F
N
2.9
Wind Variable Wind from WSW
Gusts 4.0 mph

Today
High -- | Low -- °F
--% Chance of Precip.
Yesterday
High -- | Low -- °F
Precip. -- in
6:55 AM 7:04 PM
Waning Crescent, 3% visible
Pressure 29.99 in
Visibility 10.0 miles
Clouds Overcast 1400 ft
Dew Point 59 °F
Humidity 87%
Rainfall 0.00 in
Snow Depth 0 in , 1 in
UV 0 out of 12
Pollen 3.80 out of 12
PM2.5 Good
Flu Activity Not available.
METAR KLVK 220953Z AUTO 26005KT 10SM OVC014 18/14 A3000 RMK AO2 SLP155 T01780144

More Conditions Fewer Conditions

Pressure 29.99 in
Visibility 10.0 miles
Clouds Overcast 1400 ft
Dew Point 59 °F
Humidity 87%
Rainfall 0.00 in
Snow Depth 0 in , 1 in
UV 0 out of 12
Pollen 3.80 out of 12
PM2.5 Good
Flu Activity Not available.
METAR KLVK 220953Z AUTO 26005KT 10SM OVC014 18/14 A3000 RMK AO2 SLP155 T01780144

More Conditions Fewer Conditions

10-Day Weather Forecast

Almanac

Astronomy

Sep. 22, 2014 Rise Set
Actual Time 6:55 AM PDT 7:04 PM PDT
Civil Twilight 6:29 AM PDT 7:30 PM PDT
Nautical Twilight 5:58 AM PDT 8:01 PM PDT
Astronomical Twilight 5:27 AM PDT 8:32 PM PDT
Moon 5:30 AM PDT 6:14 PM PDT
Length of Visible Light 13h 01m
Length of Day
12h 08m
Tomorrow will be 2m 24s shorter.
Waning Crescent, 3% of the Moon is Illuminated
Today
Waning Crescent
Sep 24
New
Oct 1
First Quarter
Oct 8
Full
Oct 15
Last Quarter

Today's Extremes

State Highs State Lows

Community

WunderPhotos

Upload Photos

1,755,403 photos uploaded!

Nearby

Air Quality

  Air Quality AQ Index Pollutant
Yesterday Good
OZONE
Yesterday Good
PM2.5
Current Good
PM2.5
Monday Good
OZONE
Tuesday Good
OZONE
Wednesday Good
OZONE
Thursday Good
OZONE
Friday Good
OZONE

Snow Depth

Station Depth Elevation
Monitor Pass 0 in 8350 ft
Leavitt Meadows 1 in 7200 ft
Adin Mountain 0 in 6200 ft
Forestdale Creek 0 in 8029 ft
Tahoe City Cross 0 in 6750 ft

Earthquake Activity

City Distance Mag. Time & Date
Sonoma, California 49 miles 2.7 1:17 PM PDT
2014-09-21
Cloverdale, California 92 miles 2.5 9:15 PM PDT
2014-09-20
Livermore, California 11 miles 2.6 3:37 AM PDT
2014-09-19
Minimum magnitude displayed is 2.5.

Coastal Water Temperatures

Place Temperature
No Stations Reporting

Nearby Weather Stations